Bernard, Iowa
Current Conditions -  °F | °C
As of 10:53 AM on Friday 28 Nov 2014 (Local Time) from KDBQ Reporting Station
Clear Clear  
Wind Chill:   Ceiling: Unl
Heat Index: 22°   Visibility: 10mi
Dew Point: 16°   Wind: 20mph
Humidity: 78%   Direction: 170°S
Pressure: 30.01"   Gusts: NA
Location:  42.31°N, 90.83°W
Report Text: KDBQ 281653Z 17017KT 10SM CLR M06/M09 A3001 RMK AO2 SLP181 T10561089
Loading
Personal Weather Stations






























Interactive Weather Map New forecast layout! Learn more

10-Day Weather Forecast

Advertisements
Track Severe Weather on mobile